sensor_id;sensor_type;location;lat;lon;timestamp;pressure;altitude;pressure_sealevel;temperature;humidity
46347;BME280;32057;47.830;19.046;2024-01-15T00:01:43;99103.91;;;-5.92;100.00
46347;BME280;32057;47.830;19.046;2024-01-15T00:04:09;99097.78;;;-5.83;100.00
46347;BME280;32057;47.830;19.046;2024-01-15T00:06:34;99083.25;;;-5.72;100.00
46347;BME280;32057;47.830;19.046;2024-01-15T00:09:00;99080.25;;;-5.66;100.00
46347;BME280;32057;47.830;19.046;2024-01-15T00:11:25;99082.19;;;-5.62;100.00
46347;BME280;32057;47.830;19.046;2024-01-15T00:13:50;99085.13;;;-5.83;100.00
46347;BME280;32057;47.830;19.046;2024-01-15T00:16:17;99066.19;;;-6.01;100.00
46347;BME280;32057;47.830;19.046;2024-01-15T00:18:42;99073.03;;;-6.00;100.00
46347;BME280;32057;47.830;19.046;2024-01-15T00:21:07;99068.16;;;-6.10;100.00
46347;BME280;32057;47.830;19.046;2024-01-15T00:23:32;99065.69;;;-6.22;100.00
46347;BME280;32057;47.830;19.046;2024-01-15T00:25:58;99061.91;;;-6.15;100.00
46347;BME280;32057;47.830;19.046;2024-01-15T00:28:23;99060.81;;;-6.19;100.00
46347;BME280;32057;47.830;19.046;2024-01-15T00:30:48;99066.19;;;-6.01;100.00
46347;BME280;32057;47.830;19.046;2024-01-15T00:33:14;99053.47;;;-6.03;100.00
46347;BME280;32057;47.830;19.046;2024-01-15T00:35:40;99047.50;;;-5.90;100.00
46347;BME280;32057;47.830;19.046;2024-01-15T00:38:05;99051.00;;;-5.88;100.00
46347;BME280;32057;47.830;19.046;2024-01-15T00:40:30;99044.91;;;-6.05;100.00
46347;BME280;32057;47.830;19.046;2024-01-15T00:42:55;99038.44;;;-5.99;100.00
46347;BME280;32057;47.830;19.046;2024-01-15T00:45:21;99037.34;;;-5.90;100.00
46347;BME280;32057;47.830;19.046;2024-01-15T00:47:46;99030.34;;;-5.81;100.00
46347;BME280;32057;47.830;19.046;2024-01-15T00:50:12;99029.56;;;-5.66;100.00
46347;BME280;32057;47.830;19.046;2024-01-15T00:52:37;99023.53;;;-5.55;100.00
46347;BME280;32057;47.830;19.046;2024-01-15T00:55:03;99017.56;;;-5.55;100.00
46347;BME280;32057;47.830;19.046;2024-01-15T00:57:28;99022.94;;;-5.51;100.00
46347;BME280;32057;47.830;19.046;2024-01-15T00:59:54;99012.59;;;-5.41;100.00
46347;BME280;32057;47.830;19.046;2024-01-15T01:02:19;99016.56;;;-5.31;100.00
46347;BME280;32057;47.830;19.046;2024-01-15T01:04:45;99013.69;;;-5.22;100.00
46347;BME280;32057;47.830;19.046;2024-01-15T01:07:10;99017.78;;;-5.11;100.00
46347;BME280;32057;47.830;19.046;2024-01-15T01:09:35;99015.50;;;-5.06;100.00
46347;BME280;32057;47.830;19.046;2024-01-15T01:12:00;99009.44;;;-4.95;100.00
46347;BME280;32057;47.830;19.046;2024-01-15T01:14:26;99003.16;;;-4.87;100.00
46347;BME280;32057;47.830;19.046;2024-01-15T01:16:51;98997.84;;;-4.76;100.00
46347;BME280;32057;47.830;19.046;2024-01-15T01:19:17;98994.00;;;-4.70;100.00
46347;BME280;32057;47.830;19.046;2024-01-15T01:21:42;98983.56;;;-4.74;100.00
46347;BME280;32057;47.830;19.046;2024-01-15T01:24:07;98980.44;;;-4.70;100.00
46347;BME280;32057;47.830;19.046;2024-01-15T01:26:32;98979.13;;;-4.64;100.00
46347;BME280;32057;47.830;19.046;2024-01-15T01:28:58;98966.78;;;-4.57;100.00
46347;BME280;32057;47.830;19.046;2024-01-15T01:31:24;98953.31;;;-4.56;100.00
46347;BME280;32057;47.830;19.046;2024-01-15T01:33:49;98952.91;;;-4.49;100.00
46347;BME280;32057;47.830;19.046;2024-01-15T01:36:15;98953.25;;;-4.43;100.00
46347;BME280;32057;47.830;19.046;2024-01-15T01:38:40;98944.28;;;-4.36;100.00
46347;BME280;32057;47.830;19.046;2024-01-15T01:41:06;98936.16;;;-4.31;100.00
46347;BME280;32057;47.830;19.046;2024-01-15T01:43:31;98946.66;;;-4.25;100.00
46347;BME280;32057;47.830;19.046;2024-01-15T01:45:57;98943.50;;;-4.21;100.00
46347;BME280;32057;47.830;19.046;2024-01-15T01:48:25;98940.25;;;-4.18;100.00
46347;BME280;32057;47.830;19.046;2024-01-15T01:50:54;98944.47;;;-4.18;100.00
46347;BME280;32057;47.830;19.046;2024-01-15T01:53:20;98930.19;;;-4.16;100.00
46347;BME280;32057;47.830;19.046;2024-01-15T01:55:46;98931.38;;;-4.10;100.00
46347;BME280;32057;47.830;19.046;2024-01-15T01:58:12;98923.69;;;-4.11;100.00
46347;BME280;32057;47.830;19.046;2024-01-15T02:00:37;98929.13;;;-4.05;100.00
46347;BME280;32057;47.830;19.046;2024-01-15T02:03:03;98918.25;;;-4.03;100.00
46347;BME280;32057;47.830;19.046;2024-01-15T02:05:28;98920.78;;;-4.03;100.00
46347;BME280;32057;47.830;19.046;2024-01-15T02:07:55;98909.81;;;-4.02;100.00
46347;BME280;32057;47.830;19.046;2024-01-15T02:10:20;98908.94;;;-4.02;100.00
46347;BME280;32057;47.830;19.046;2024-01-15T02:12:46;98902.28;;;-4.00;100.00
46347;BME280;32057;47.830;19.046;2024-01-15T02:15:13;98903.25;;;-3.98;100.00
46347;BME280;32057;47.830;19.046;2024-01-15T02:20:24;98896.34;;;-4.01;100.00
46347;BME280;32057;47.830;19.046;2024-01-15T02:22:50;98881.25;;;-3.97;100.00
46347;BME280;32057;47.830;19.046;2024-01-15T02:25:15;98878.25;;;-3.90;100.00
46347;BME280;32057;47.830;19.046;2024-01-15T02:27:43;98869.13;;;-3.87;100.00
46347;BME280;32057;47.830;19.046;2024-01-15T02:30:13;98857.19;;;-3.88;100.00
46347;BME280;32057;47.830;19.046;2024-01-15T02:32:38;98853.72;;;-3.90;100.00
46347;BME280;32057;47.830;19.046;2024-01-15T02:35:04;98867.94;;;-3.93;100.00
46347;BME280;32057;47.830;19.046;2024-01-15T02:37:29;98877.53;;;-3.88;100.00
46347;BME280;32057;47.830;19.046;2024-01-15T02:39:55;98894.31;;;-3.91;100.00
46347;BME280;32057;47.830;19.046;2024-01-15T02:42:20;98907.88;;;-3.91;100.00
46347;BME280;32057;47.830;19.046;2024-01-15T02:44:45;98900.34;;;-3.89;100.00
46347;BME280;32057;47.830;19.046;2024-01-15T02:47:10;98897.50;;;-3.79;100.00
46347;BME280;32057;47.830;19.046;2024-01-15T02:49:36;98890.28;;;-3.71;100.00
46347;BME280;32057;47.830;19.046;2024-01-15T02:52:01;98891.25;;;-3.69;100.00
46347;BME280;32057;47.830;19.046;2024-01-15T02:54:26;98886.06;;;-3.71;100.00
46347;BME280;32057;47.830;19.046;2024-01-15T02:56:52;98873.59;;;-3.66;100.00
46347;BME280;32057;47.830;19.046;2024-01-15T02:59:17;98876.22;;;-3.65;100.00
46347;BME280;32057;47.830;19.046;2024-01-15T03:01:42;98867.97;;;-3.61;100.00
46347;BME280;32057;47.830;19.046;2024-01-15T03:04:08;98856.03;;;-3.62;100.00
46347;BME280;32057;47.830;19.046;2024-01-15T03:06:33;98848.66;;;-3.57;100.00
46347;BME280;32057;47.830;19.046;2024-01-15T03:08:58;98858.94;;;-3.55;100.00
46347;BME280;32057;47.830;19.046;2024-01-15T03:11:24;98881.72;;;-3.57;100.00
46347;BME280;32057;47.830;19.046;2024-01-15T03:13:50;98871.16;;;-3.65;100.00
46347;BME280;32057;47.830;19.046;2024-01-15T03:16:15;98877.50;;;-3.73;100.00
46347;BME280;32057;47.830;19.046;2024-01-15T03:18:40;98877.09;;;-3.64;100.00
46347;BME280;32057;47.830;19.046;2024-01-15T03:21:05;98879.50;;;-3.51;100.00
46347;BME280;32057;47.830;19.046;2024-01-15T03:23:31;98880.91;;;-3.40;100.00
46347;BME280;32057;47.830;19.046;2024-01-15T03:25:56;98863.47;;;-3.33;100.00
46347;BME280;32057;47.830;19.046;2024-01-15T03:28:21;98852.47;;;-3.32;100.00
46347;BME280;32057;47.830;19.046;2024-01-15T03:30:47;98865.34;;;-3.29;100.00
46347;BME280;32057;47.830;19.046;2024-01-15T03:33:12;98857.88;;;-3.26;100.00
46347;BME280;32057;47.830;19.046;2024-01-15T03:35:37;98845.53;;;-3.18;100.00
46347;BME280;32057;47.830;19.046;2024-01-15T03:38:03;98830.50;;;-3.14;100.00
46347;BME280;32057;47.830;19.046;2024-01-15T03:40:28;98832.41;;;-3.10;100.00
46347;BME280;32057;47.830;19.046;2024-01-15T03:42:53;98831.63;;;-3.09;100.00
46347;BME280;32057;47.830;19.046;2024-01-15T03:45:19;98838.94;;;-3.15;100.00
46347;BME280;32057;47.830;19.046;2024-01-15T03:47:44;98841.72;;;-3.10;100.00
46347;BME280;32057;47.830;19.046;2024-01-15T03:50:10;98832.41;;;-3.10;100.00
46347;BME280;32057;47.830;19.046;2024-01-15T03:52:35;98831.75;;;-3.06;100.00
46347;BME280;32057;47.830;19.046;2024-01-15T03:55:00;98838.69;;;-3.03;100.00
46347;BME280;32057;47.830;19.046;2024-01-15T03:57:26;98837.09;;;-3.01;100.00
46347;BME280;32057;47.830;19.046;2024-01-15T03:59:52;98830.50;;;-2.97;100.00
46347;BME280;32057;47.830;19.046;2024-01-15T04:02:17;98810.25;;;-2.94;100.00
46347;BME280;32057;47.830;19.046;2024-01-15T04:04:43;98812.03;;;-2.93;100.00
46347;BME280;32057;47.830;19.046;2024-01-15T04:07:09;98810.97;;;-3.15;100.00
46347;BME280;32057;47.830;19.046;2024-01-15T04:09:34;98815.97;;;-3.16;100.00
46347;BME280;32057;47.830;19.046;2024-01-15T04:12:00;98818.97;;;-3.24;100.00
46347;BME280;32057;47.830;19.046;2024-01-15T04:14:25;98815.34;;;-3.29;100.00
46347;BME280;32057;47.830;19.046;2024-01-15T04:16:50;98813.84;;;-3.42;100.00
46347;BME280;32057;47.830;19.046;2024-01-15T04:19:16;98809.66;;;-3.74;100.00
46347;BME280;32057;47.830;19.046;2024-01-15T04:21:41;98802.19;;;-3.87;100.00
46347;BME280;32057;47.830;19.046;2024-01-15T04:24:06;98802.25;;;-4.02;100.00
46347;BME280;32057;47.830;19.046;2024-01-15T04:26:32;98797.50;;;-3.96;100.00
46347;BME280;32057;47.830;19.046;2024-01-15T04:28:57;98797.34;;;-3.99;100.00
46347;BME280;32057;47.830;19.046;2024-01-15T04:31:24;98789.22;;;-3.92;100.00
46347;BME280;32057;47.830;19.046;2024-01-15T04:33:50;98805.50;;;-3.88;100.00
46347;BME280;32057;47.830;19.046;2024-01-15T04:36:16;98797.16;;;-3.86;100.00
46347;BME280;32057;47.830;19.046;2024-01-15T04:38:41;98802.09;;;-4.05;100.00
46347;BME280;32057;47.830;19.046;2024-01-15T04:41:11;98795.38;;;-4.20;100.00
46347;BME280;32057;47.830;19.046;2024-01-15T04:43:36;98811.13;;;-4.42;100.00
46347;BME280;32057;47.830;19.046;2024-01-15T04:46:01;98808.06;;;-4.36;100.00
46347;BME280;32057;47.830;19.046;2024-01-15T04:48:28;98800.44;;;-4.36;100.00
46347;BME280;32057;47.830;19.046;2024-01-15T04:50:53;98781.22;;;-4.47;100.00
46347;BME280;32057;47.830;19.046;2024-01-15T04:53:19;98782.72;;;-4.66;100.00
46347;BME280;32057;47.830;19.046;2024-01-15T04:55:44;98801.09;;;-4.55;100.00
46347;BME280;32057;47.830;19.046;2024-01-15T04:58:09;98800.63;;;-4.48;100.00
46347;BME280;32057;47.830;19.046;2024-01-15T05:00:34;98815.34;;;-4.42;100.00
46347;BME280;32057;47.830;19.046;2024-01-15T05:03:00;98815.34;;;-4.42;100.00
46347;BME280;32057;47.830;19.046;2024-01-15T05:05:25;98795.84;;;-4.58;100.00
46347;BME280;32057;47.830;19.046;2024-01-15T05:07:51;98806.72;;;-4.75;100.00
46347;BME280;32057;47.830;19.046;2024-01-15T05:10:16;98825.38;;;-4.75;100.00
46347;BME280;32057;47.830;19.046;2024-01-15T05:12:41;98836.91;;;-4.80;100.00
46347;BME280;32057;47.830;19.046;2024-01-15T05:15:07;98831.13;;;-4.77;100.00
46347;BME280;32057;47.830;19.046;2024-01-15T05:17:32;98829.06;;;-4.85;100.00
46347;BME280;32057;47.830;19.046;2024-01-15T05:19:58;98815.84;;;-4.94;100.00
46347;BME280;32057;47.830;19.046;2024-01-15T05:22:23;98826.63;;;-5.13;100.00
46347;BME280;32057;47.830;19.046;2024-01-15T05:24:50;98826.63;;;-5.13;100.00
46347;BME280;32057;47.830;19.046;2024-01-15T05:27:15;98808.50;;;-5.04;100.00
46347;BME280;32057;47.830;19.046;2024-01-15T05:29:41;98818.56;;;-5.06;100.00
46347;BME280;32057;47.830;19.046;2024-01-15T05:32:06;98821.59;;;-5.11;100.00
46347;BME280;32057;47.830;19.046;2024-01-15T05:34:31;98814.78;;;-5.27;100.00
46347;BME280;32057;47.830;19.046;2024-01-15T05:36:57;98812.50;;;-5.37;100.00
46347;BME280;32057;47.830;19.046;2024-01-15T05:39:22;98812.34;;;-5.26;100.00
46347;BME280;32057;47.830;19.046;2024-01-15T05:41:47;98807.97;;;-5.13;100.00
46347;BME280;32057;47.830;19.046;2024-01-15T05:44:12;98810.00;;;-5.23;100.00
46347;BME280;32057;47.830;19.046;2024-01-15T05:46:38;98789.97;;;-5.33;100.00
46347;BME280;32057;47.830;19.046;2024-01-15T05:49:03;98796.34;;;-5.25;100.00
46347;BME280;32057;47.830;19.046;2024-01-15T05:51:29;98789.19;;;-5.17;100.00
46347;BME280;32057;47.830;19.046;2024-01-15T05:53:54;98783.56;;;-5.11;100.00
46347;BME280;32057;47.830;19.046;2024-01-15T05:56:19;98780.44;;;-5.22;100.00
46347;BME280;32057;47.830;19.046;2024-01-15T05:58:45;98781.59;;;-5.17;100.00
46347;BME280;32057;47.830;19.046;2024-01-15T06:01:10;98784.88;;;-5.18;100.00
46347;BME280;32057;47.830;19.046;2024-01-15T06:03:35;98778.00;;;-5.21;100.00
46347;BME280;32057;47.830;19.046;2024-01-15T06:06:01;98787.00;;;-5.11;100.00
46347;BME280;32057;47.830;19.046;2024-01-15T06:08:26;98776.50;;;-5.02;100.00
46347;BME280;32057;47.830;19.046;2024-01-15T06:10:53;98768.16;;;-5.00;100.00
46347;BME280;32057;47.830;19.046;2024-01-15T06:13:18;98768.97;;;-5.15;100.00
46347;BME280;32057;47.830;19.046;2024-01-15T06:15:43;98757.72;;;-5.21;100.00
46347;BME280;32057;47.830;19.046;2024-01-15T06:18:08;98761.72;;;-5.24;100.00
46347;BME280;32057;47.830;19.046;2024-01-15T06:20:34;98762.88;;;-5.19;100.00
46347;BME280;32057;47.830;19.046;2024-01-15T06:22:59;98760.69;;;-5.13;100.00
46347;BME280;32057;47.830;19.046;2024-01-15T06:25:24;98780.63;;;-5.19;100.00
46347;BME280;32057;47.830;19.046;2024-01-15T06:27:50;98783.22;;;-5.17;100.00
46347;BME280;32057;47.830;19.046;2024-01-15T06:30:15;98778.75;;;-5.22;100.00
46347;BME280;32057;47.830;19.046;2024-01-15T06:32:40;98772.63;;;-5.40;100.00
46347;BME280;32057;47.830;19.046;2024-01-15T06:35:06;98778.31;;;-5.59;100.00
46347;BME280;32057;47.830;19.046;2024-01-15T06:37:31;98768.50;;;-5.68;100.00
46347;BME280;32057;47.830;19.046;2024-01-15T06:39:57;98761.69;;;-5.69;100.00
46347;BME280;32057;47.830;19.046;2024-01-15T06:42:23;98775.13;;;-5.70;100.00
46347;BME280;32057;47.830;19.046;2024-01-15T06:44:48;98783.19;;;-5.62;100.00
46347;BME280;32057;47.830;19.046;2024-01-15T06:47:14;98788.75;;;-5.68;100.00
46347;BME280;32057;47.830;19.046;2024-01-15T06:49:39;98795.38;;;-5.85;100.00
46347;BME280;32057;47.830;19.046;2024-01-15T06:52:05;98793.97;;;-5.80;100.00
46347;BME280;32057;47.830;19.046;2024-01-15T06:54:31;98802.13;;;-5.70;100.00
46347;BME280;32057;47.830;19.046;2024-01-15T06:56:56;98810.69;;;-5.68;100.00
46347;BME280;32057;47.830;19.046;2024-01-15T06:59:22;98810.09;;;-5.64;100.00
46347;BME280;32057;47.830;19.046;2024-01-15T07:01:47;98810.50;;;-5.71;100.00
46347;BME280;32057;47.830;19.046;2024-01-15T07:04:12;98816.03;;;-5.92;100.00
46347;BME280;32057;47.830;19.046;2024-01-15T07:06:38;98818.72;;;-6.04;100.00
46347;BME280;32057;47.830;19.046;2024-01-15T07:09:04;98818.25;;;-5.98;100.00
46347;BME280;32057;47.830;19.046;2024-01-15T07:11:29;98819.31;;;-5.80;100.00
46347;BME280;32057;47.830;19.046;2024-01-15T07:13:54;98815.56;;;-5.71;100.00
46347;BME280;32057;47.830;19.046;2024-01-15T07:16:20;98805.53;;;-5.70;100.00
46347;BME280;32057;47.830;19.046;2024-01-15T07:18:45;98814.91;;;-5.69;100.00
46347;BME280;32057;47.830;19.046;2024-01-15T07:21:10;98823.72;;;-5.62;100.00
46347;BME280;32057;47.830;19.046;2024-01-15T07:23:36;98827.59;;;-5.54;100.00
46347;BME280;32057;47.830;19.046;2024-01-15T07:26:01;98828.25;;;-5.43;100.00
46347;BME280;32057;47.830;19.046;2024-01-15T07:28:30;98826.56;;;-5.43;100.00
46347;BME280;32057;47.830;19.046;2024-01-15T07:30:56;98832.66;;;-5.54;100.00
46347;BME280;32057;47.830;19.046;2024-01-15T07:33:22;98836.63;;;-5.44;100.00
46347;BME280;32057;47.830;19.046;2024-01-15T07:35:47;98839.53;;;-5.08;100.00
46347;BME280;32057;47.830;19.046;2024-01-15T07:38:12;98836.38;;;-4.89;100.00
46347;BME280;32057;47.830;19.046;2024-01-15T07:40:37;98850.66;;;-5.06;100.00
46347;BME280;32057;47.830;19.046;2024-01-15T07:43:03;98857.91;;;-4.97;100.00
46347;BME280;32057;47.830;19.046;2024-01-15T07:45:29;98857.41;;;-4.77;100.00
46347;BME280;32057;47.830;19.046;2024-01-15T07:47:54;98851.25;;;-4.51;100.00
46347;BME280;32057;47.830;19.046;2024-01-15T07:50:19;98865.47;;;-4.23;100.00
46347;BME280;32057;47.830;19.046;2024-01-15T07:52:45;98869.66;;;-3.92;100.00
46347;BME280;32057;47.830;19.046;2024-01-15T07:55:10;98858.97;;;-3.54;100.00
46347;BME280;32057;47.830;19.046;2024-01-15T07:57:35;98842.56;;;-3.10;100.00
46347;BME280;32057;47.830;19.046;2024-01-15T08:00:02;98852.00;;;-2.91;100.00
46347;BME280;32057;47.830;19.046;2024-01-15T08:02:29;98840.41;;;-2.68;100.00
46347;BME280;32057;47.830;19.046;2024-01-15T08:04:54;98852.44;;;-2.47;100.00
46347;BME280;32057;47.830;19.046;2024-01-15T08:07:19;98848.34;;;-2.26;100.00
46347;BME280;32057;47.830;19.046;2024-01-15T08:09:45;98858.47;;;-2.09;100.00
46347;BME280;32057;47.830;19.046;2024-01-15T08:12:12;98857.03;;;-1.85;100.00
46347;BME280;32057;47.830;19.046;2024-01-15T08:14:38;98863.44;;;-1.75;100.00
46347;BME280;32057;47.830;19.046;2024-01-15T08:17:03;98862.75;;;-1.71;100.00
46347;BME280;32057;47.830;19.046;2024-01-15T08:19:29;98858.88;;;-1.63;100.00
46347;BME280;32057;47.830;19.046;2024-01-15T08:21:54;98864.59;;;-1.49;100.00
46347;BME280;32057;47.830;19.046;2024-01-15T08:24:20;98856.53;;;-1.38;100.00
46347;BME280;32057;47.830;19.046;2024-01-15T08:26:45;98861.56;;;-1.21;100.00
46347;BME280;32057;47.830;19.046;2024-01-15T08:29:10;98861.19;;;-0.89;100.00
46347;BME280;32057;47.830;19.046;2024-01-15T08:31:36;98853.88;;;-0.82;100.00
46347;BME280;32057;47.830;19.046;2024-01-15T08:34:01;98851.75;;;-0.71;100.00
46347;BME280;32057;47.830;19.046;2024-01-15T08:36:27;98845.25;;;-0.63;100.00
46347;BME280;32057;47.830;19.046;2024-01-15T08:38:55;98844.13;;;-0.48;100.00
46347;BME280;32057;47.830;19.046;2024-01-15T08:41:20;98851.25;;;-0.41;100.00
46347;BME280;32057;47.830;19.046;2024-01-15T08:43:45;98841.41;;;-0.32;100.00
46347;BME280;32057;47.830;19.046;2024-01-15T08:46:11;98838.38;;;-0.22;100.00
46347;BME280;32057;47.830;19.046;2024-01-15T08:48:36;98845.28;;;-0.19;100.00
46347;BME280;32057;47.830;19.046;2024-01-15T08:51:01;98852.56;;;-0.07;100.00
46347;BME280;32057;47.830;19.046;2024-01-15T08:53:27;98846.28;;;0.07;100.00
46347;BME280;32057;47.830;19.046;2024-01-15T08:55:53;98841.41;;;0.13;100.00
46347;BME280;32057;47.830;19.046;2024-01-15T08:58:18;98850.19;;;0.20;100.00
46347;BME280;32057;47.830;19.046;2024-01-15T09:00:43;98847.44;;;0.15;100.00
46347;BME280;32057;47.830;19.046;2024-01-15T09:03:09;98849.91;;;0.12;100.00
46347;BME280;32057;47.830;19.046;2024-01-15T09:05:34;98849.19;;;0.39;100.00
46347;BME280;32057;47.830;19.046;2024-01-15T09:08:00;98844.63;;;0.54;100.00
46347;BME280;32057;47.830;19.046;2024-01-15T09:10:25;98839.50;;;0.54;100.00
46347;BME280;32057;47.830;19.046;2024-01-15T09:12:51;98845.16;;;0.70;100.00
46347;BME280;32057;47.830;19.046;2024-01-15T09:15:16;98832.19;;;0.89;100.00
46347;BME280;32057;47.830;19.046;2024-01-15T09:17:41;98831.25;;;0.87;100.00
46347;BME280;32057;47.830;19.046;2024-01-15T09:20:08;98833.81;;;0.87;100.00
46347;BME280;32057;47.830;19.046;2024-01-15T09:22:34;98823.19;;;1.01;100.00
46347;BME280;32057;47.830;19.046;2024-01-15T09:24:59;98821.03;;;1.13;100.00
46347;BME280;32057;47.830;19.046;2024-01-15T09:27:25;98815.91;;;1.13;100.00
46347;BME280;32057;47.830;19.046;2024-01-15T09:29:53;98808.38;;;1.17;100.00
46347;BME280;32057;47.830;19.046;2024-01-15T09:32:19;98812.31;;;1.33;100.00
46347;BME280;32057;47.830;19.046;2024-01-15T09:34:46;98811.50;;;1.34;100.00
46347;BME280;32057;47.830;19.046;2024-01-15T09:37:11;98794.47;;;1.36;100.00
46347;BME280;32057;47.830;19.046;2024-01-15T09:39:37;98801.13;;;1.31;100.00
46347;BME280;32057;47.830;19.046;2024-01-15T09:42:02;98795.06;;;1.55;100.00
46347;BME280;32057;47.830;19.046;2024-01-15T09:44:28;98790.50;;;1.73;100.00
46347;BME280;32057;47.830;19.046;2024-01-15T09:46:55;98797.94;;;1.66;100.00
46347;BME280;32057;47.830;19.046;2024-01-15T09:49:21;98793.72;;;1.66;100.00
46347;BME280;32057;47.830;19.046;2024-01-15T09:51:47;98792.25;;;1.74;100.00
46347;BME280;32057;47.830;19.046;2024-01-15T09:54:12;98789.16;;;1.57;100.00
46347;BME280;32057;47.830;19.046;2024-01-15T09:56:39;98788.78;;;1.72;100.00
46347;BME280;32057;47.830;19.046;2024-01-15T09:59:05;98773.31;;;1.71;100.00
46347;BME280;32057;47.830;19.046;2024-01-15T10:01:31;98761.19;;;1.65;100.00
46347;BME280;32057;47.830;19.046;2024-01-15T10:03:57;98761.28;;;1.68;100.00
46347;BME280;32057;47.830;19.046;2024-01-15T10:06:26;98755.50;;;1.74;100.00
46347;BME280;32057;47.830;19.046;2024-01-15T10:08:53;98754.88;;;1.83;100.00
46347;BME280;32057;47.830;19.046;2024-01-15T10:11:19;98744.78;;;1.89;100.00
46347;BME280;32057;47.830;19.046;2024-01-15T10:13:45;98732.16;;;1.95;100.00
46347;BME280;32057;47.830;19.046;2024-01-15T10:16:10;98744.63;;;2.13;100.00
46347;BME280;32057;47.830;19.046;2024-01-15T10:18:36;98730.19;;;2.16;100.00
46347;BME280;32057;47.830;19.046;2024-01-15T10:21:08;98733.09;;;2.29;100.00
46347;BME280;32057;47.830;19.046;2024-01-15T10:23:33;98736.41;;;2.25;100.00
46347;BME280;32057;47.830;19.046;2024-01-15T10:25:59;98737.44;;;2.31;100.00
46347;BME280;32057;47.830;19.046;2024-01-15T10:28:29;98730.06;;;2.44;100.00
46347;BME280;32057;47.830;19.046;2024-01-15T10:30:57;98729.47;;;2.52;100.00
46347;BME280;32057;47.830;19.046;2024-01-15T10:33:23;98727.47;;;2.42;100.00
46347;BME280;32057;47.830;19.046;2024-01-15T10:35:53;98726.47;;;2.37;100.00
46347;BME280;32057;47.830;19.046;2024-01-15T10:38:20;98711.28;;;2.45;100.00
46347;BME280;32057;47.830;19.046;2024-01-15T10:40:47;98706.56;;;2.62;100.00
46347;BME280;32057;47.830;19.046;2024-01-15T10:43:12;98703.69;;;2.49;100.00
46347;BME280;32057;47.830;19.046;2024-01-15T10:45:38;98686.78;;;2.57;100.00
46347;BME280;32057;47.830;19.046;2024-01-15T10:48:04;98690.66;;;2.75;100.00
46347;BME280;32057;47.830;19.046;2024-01-15T10:50:29;98697.28;;;2.67;100.00
46347;BME280;32057;47.830;19.046;2024-01-15T10:52:55;98700.38;;;2.87;100.00
46347;BME280;32057;47.830;19.046;2024-01-15T10:55:23;98691.75;;;2.85;100.00
46347;BME280;32057;47.830;19.046;2024-01-15T10:57:49;98689.44;;;2.61;100.00
46347;BME280;32057;47.830;19.046;2024-01-15T11:00:15;98689.63;;;2.68;100.00
46347;BME280;32057;47.830;19.046;2024-01-15T11:02:40;98692.47;;;2.79;100.00
46347;BME280;32057;47.830;19.046;2024-01-15T11:05:07;98692.50;;;2.81;100.00
46347;BME280;32057;47.830;19.046;2024-01-15T11:07:32;98695.91;;;2.79;100.00
46347;BME280;32057;47.830;19.046;2024-01-15T11:09:58;98682.22;;;2.81;99.99
46347;BME280;32057;47.830;19.046;2024-01-15T11:12:26;98680.56;;;2.83;99.65
46347;BME280;32057;47.830;19.046;2024-01-15T11:14:51;98693.31;;;2.79;98.35
46347;BME280;32057;47.830;19.046;2024-01-15T11:17:20;98688.19;;;2.78;98.14
46347;BME280;32057;47.830;19.046;2024-01-15T11:19:46;98689.13;;;2.82;98.34
46347;BME280;32057;47.830;19.046;2024-01-15T11:25:03;98708.31;;;2.63;96.87
46347;BME280;32057;47.830;19.046;2024-01-15T11:27:44;98697.81;;;2.53;96.46
46347;BME280;32057;47.830;19.046;2024-01-15T11:30:13;98700.16;;;2.44;96.70
46347;BME280;32057;47.830;19.046;2024-01-15T11:32:39;98700.22;;;2.47;97.17
46347;BME280;32057;47.830;19.046;2024-01-15T11:35:09;98702.81;;;2.49;96.79
46347;BME280;32057;47.830;19.046;2024-01-15T11:40:35;98702.38;;;2.64;95.53
46347;BME280;32057;47.830;19.046;2024-01-15T11:43:03;98701.69;;;2.71;95.71
46347;BME280;32057;47.830;19.046;2024-01-15T11:45:30;98712.94;;;2.76;97.01
46347;BME280;32057;47.830;19.046;2024-01-15T11:48:14;98712.91;;;2.74;96.05
46347;BME280;32057;47.830;19.046;2024-01-15T11:50:43;98706.81;;;2.71;95.48
46347;BME280;32057;47.830;19.046;2024-01-15T11:53:32;98700.16;;;2.79;95.38
46347;BME280;32057;47.830;19.046;2024-01-15T11:56:01;98693.16;;;2.72;94.10
46347;BME280;32057;47.830;19.046;2024-01-15T11:58:27;98677.91;;;2.79;95.60
46347;BME280;32057;47.830;19.046;2024-01-15T12:00:53;98675.63;;;2.90;94.90
46347;BME280;32057;47.830;19.046;2024-01-15T12:03:23;98679.84;;;2.88;94.12
46347;BME280;32057;47.830;19.046;2024-01-15T12:05:49;98679.91;;;2.90;94.25
46347;BME280;32057;47.830;19.046;2024-01-15T12:08:21;98676.75;;;3.02;93.32
46347;BME280;32057;47.830;19.046;2024-01-15T12:10:46;98676.63;;;2.97;93.91
46347;BME280;32057;47.830;19.046;2024-01-15T12:13:15;98665.53;;;2.99;92.87
46347;BME280;32057;47.830;19.046;2024-01-15T12:15:42;98668.34;;;3.09;93.60
46347;BME280;32057;47.830;19.046;2024-01-15T12:18:09;98667.66;;;3.16;93.28
46347;BME280;32057;47.830;19.046;2024-01-15T12:20:35;98654.91;;;3.21;91.89
46347;BME280;32057;47.830;19.046;2024-01-15T12:23:01;98652.44;;;3.25;92.71
46347;BME280;32057;47.830;19.046;2024-01-15T12:25:29;98660.13;;;3.24;93.07
46347;BME280;32057;47.830;19.046;2024-01-15T12:27:55;98662.72;;;3.24;91.75
46347;BME280;32057;47.830;19.046;2024-01-15T12:30:21;98648.09;;;3.23;92.52
46347;BME280;32057;47.830;19.046;2024-01-15T12:32:47;98645.72;;;3.30;91.53
46347;BME280;32057;47.830;19.046;2024-01-15T12:35:13;98632.09;;;3.34;91.25
46347;BME280;32057;47.830;19.046;2024-01-15T12:37:40;98627.81;;;3.35;90.44
46347;BME280;32057;47.830;19.046;2024-01-15T12:40:08;98620.22;;;3.39;90.54
46347;BME280;32057;47.830;19.046;2024-01-15T12:42:41;98614.22;;;3.41;90.21
46347;BME280;32057;47.830;19.046;2024-01-15T12:45:07;98599.78;;;3.46;88.62
46347;BME280;32057;47.830;19.046;2024-01-15T12:47:33;98597.97;;;3.42;89.97